sensor_id;sensor_type;location;lat;lon;timestamp;P1;durP1;ratioP1;P2;durP2;ratioP2
75450;SDS011;64029;48.244;9.188;2023-10-09T00:00:04;16.57;;;5.93;;
75450;SDS011;64029;48.244;9.188;2023-10-09T00:02:56;13.00;;;4.87;;
75450;SDS011;64029;48.244;9.188;2023-10-09T00:05:23;21.87;;;5.60;;
75450;SDS011;64029;48.244;9.188;2023-10-09T00:08:06;25.57;;;6.67;;
75450;SDS011;64029;48.244;9.188;2023-10-09T00:10:35;16.53;;;7.50;;
75450;SDS011;64029;48.244;9.188;2023-10-09T00:13:15;25.57;;;7.40;;
75450;SDS011;64029;48.244;9.188;2023-10-09T00:15:43;15.90;;;6.20;;
75450;SDS011;64029;48.244;9.188;2023-10-09T00:18:16;12.60;;;6.17;;
75450;SDS011;64029;48.244;9.188;2023-10-09T00:20:53;28.43;;;6.47;;
75450;SDS011;64029;48.244;9.188;2023-10-09T00:23:25;17.57;;;6.40;;
75450;SDS011;64029;48.244;9.188;2023-10-09T00:25:54;16.30;;;5.70;;
75450;SDS011;64029;48.244;9.188;2023-10-09T00:28:35;12.73;;;5.63;;
75450;SDS011;64029;48.244;9.188;2023-10-09T00:31:06;16.87;;;6.20;;
75450;SDS011;64029;48.244;9.188;2023-10-09T00:33:39;22.00;;;6.77;;
75450;SDS011;64029;48.244;9.188;2023-10-09T00:36:09;17.40;;;6.73;;
75450;SDS011;64029;48.244;9.188;2023-10-09T00:38:42;14.93;;;5.60;;
75450;SDS011;64029;48.244;9.188;2023-10-09T00:41:21;14.77;;;4.97;;
75450;SDS011;64029;48.244;9.188;2023-10-09T00:43:58;20.80;;;6.60;;
75450;SDS011;64029;48.244;9.188;2023-10-09T00:46:25;16.87;;;6.77;;
75450;SDS011;64029;48.244;9.188;2023-10-09T00:48:54;19.97;;;6.73;;
75450;SDS011;64029;48.244;9.188;2023-10-09T00:51:28;15.00;;;5.80;;
75450;SDS011;64029;48.244;9.188;2023-10-09T00:54:04;18.50;;;5.80;;
75450;SDS011;64029;48.244;9.188;2023-10-09T00:56:39;20.07;;;6.13;;
75450;SDS011;64029;48.244;9.188;2023-10-09T00:59:18;21.47;;;6.13;;
75450;SDS011;64029;48.244;9.188;2023-10-09T01:01:47;14.57;;;4.87;;
75450;SDS011;64029;48.244;9.188;2023-10-09T01:04:21;15.80;;;4.90;;
75450;SDS011;64029;48.244;9.188;2023-10-09T01:06:50;16.90;;;6.67;;
75450;SDS011;64029;48.244;9.188;2023-10-09T01:09:31;14.90;;;5.93;;
75450;SDS011;64029;48.244;9.188;2023-10-09T01:12:02;18.07;;;6.63;;
75450;SDS011;64029;48.244;9.188;2023-10-09T01:14:31;22.47;;;6.47;;
75450;SDS011;64029;48.244;9.188;2023-10-09T01:17:01;17.30;;;6.20;;
75450;SDS011;64029;48.244;9.188;2023-10-09T01:19:31;18.90;;;6.03;;
75450;SDS011;64029;48.244;9.188;2023-10-09T01:21:59;14.40;;;6.20;;
75450;SDS011;64029;48.244;9.188;2023-10-09T01:24:31;16.60;;;5.53;;
75450;SDS011;64029;48.244;9.188;2023-10-09T01:27:00;15.20;;;6.13;;
75450;SDS011;64029;48.244;9.188;2023-10-09T01:29:30;17.27;;;6.10;;
75450;SDS011;64029;48.244;9.188;2023-10-09T01:31:57;19.30;;;6.17;;
75450;SDS011;64029;48.244;9.188;2023-10-09T01:34:25;14.67;;;5.97;;
75450;SDS011;64029;48.244;9.188;2023-10-09T01:37:07;18.23;;;6.30;;
75450;SDS011;64029;48.244;9.188;2023-10-09T01:39:44;17.73;;;6.27;;
75450;SDS011;64029;48.244;9.188;2023-10-09T01:42:13;13.70;;;6.90;;
75450;SDS011;64029;48.244;9.188;2023-10-09T01:44:49;16.60;;;6.30;;
75450;SDS011;64029;48.244;9.188;2023-10-09T01:47:20;19.87;;;6.17;;
75450;SDS011;64029;48.244;9.188;2023-10-09T01:49:56;12.50;;;5.47;;
75450;SDS011;64029;48.244;9.188;2023-10-09T01:52:23;14.17;;;5.73;;
75450;SDS011;64029;48.244;9.188;2023-10-09T01:54:52;25.93;;;6.13;;
75450;SDS011;64029;48.244;9.188;2023-10-09T01:57:20;21.77;;;6.97;;
75450;SDS011;64029;48.244;9.188;2023-10-09T01:59:51;29.10;;;6.80;;
75450;SDS011;64029;48.244;9.188;2023-10-09T02:02:19;21.57;;;6.63;;
75450;SDS011;64029;48.244;9.188;2023-10-09T02:04:57;19.27;;;5.60;;
75450;SDS011;64029;48.244;9.188;2023-10-09T02:07:36;16.27;;;5.10;;
75450;SDS011;64029;48.244;9.188;2023-10-09T02:10:18;14.03;;;4.70;;
75450;SDS011;64029;48.244;9.188;2023-10-09T02:12:56;18.60;;;5.53;;
75450;SDS011;64029;48.244;9.188;2023-10-09T02:15:27;18.70;;;6.07;;
75450;SDS011;64029;48.244;9.188;2023-10-09T02:18:11;19.63;;;5.37;;
75450;SDS011;64029;48.244;9.188;2023-10-09T02:20:58;23.23;;;5.87;;
75450;SDS011;64029;48.244;9.188;2023-10-09T02:23:38;29.03;;;5.93;;
75450;SDS011;64029;48.244;9.188;2023-10-09T02:26:07;18.00;;;5.40;;
75450;SDS011;64029;48.244;9.188;2023-10-09T02:28:42;17.47;;;4.87;;
75450;SDS011;64029;48.244;9.188;2023-10-09T02:31:10;13.67;;;4.77;;
75450;SDS011;64029;48.244;9.188;2023-10-09T02:33:41;13.43;;;4.40;;
75450;SDS011;64029;48.244;9.188;2023-10-09T02:36:09;20.10;;;5.07;;
75450;SDS011;64029;48.244;9.188;2023-10-09T02:38:36;17.70;;;6.60;;
75450;SDS011;64029;48.244;9.188;2023-10-09T02:41:09;17.20;;;5.93;;
75450;SDS011;64029;48.244;9.188;2023-10-09T02:43:47;19.73;;;4.77;;
75450;SDS011;64029;48.244;9.188;2023-10-09T02:46:16;22.73;;;5.07;;
75450;SDS011;64029;48.244;9.188;2023-10-09T02:48:45;18.27;;;5.97;;
75450;SDS011;64029;48.244;9.188;2023-10-09T02:51:16;16.13;;;5.37;;
75450;SDS011;64029;48.244;9.188;2023-10-09T02:53:58;20.83;;;6.00;;
75450;SDS011;64029;48.244;9.188;2023-10-09T02:56:34;12.50;;;4.63;;
75450;SDS011;64029;48.244;9.188;2023-10-09T02:59:06;19.00;;;5.80;;
75450;SDS011;64029;48.244;9.188;2023-10-09T03:01:33;14.67;;;5.40;;
75450;SDS011;64029;48.244;9.188;2023-10-09T03:04:06;20.63;;;6.60;;
75450;SDS011;64029;48.244;9.188;2023-10-09T03:06:36;19.03;;;4.90;;
75450;SDS011;64029;48.244;9.188;2023-10-09T03:09:08;18.40;;;4.80;;
75450;SDS011;64029;48.244;9.188;2023-10-09T03:11:44;18.93;;;5.77;;
75450;SDS011;64029;48.244;9.188;2023-10-09T03:14:13;22.23;;;5.00;;
75450;SDS011;64029;48.244;9.188;2023-10-09T03:16:40;18.93;;;5.60;;
75450;SDS011;64029;48.244;9.188;2023-10-09T03:19:08;22.03;;;5.93;;
75450;SDS011;64029;48.244;9.188;2023-10-09T03:21:35;17.43;;;4.80;;
75450;SDS011;64029;48.244;9.188;2023-10-09T03:24:03;20.13;;;4.97;;
75450;SDS011;64029;48.244;9.188;2023-10-09T03:26:31;19.93;;;7.00;;
75450;SDS011;64029;48.244;9.188;2023-10-09T03:29:02;16.60;;;5.93;;
75450;SDS011;64029;48.244;9.188;2023-10-09T03:31:31;22.73;;;5.73;;
75450;SDS011;64029;48.244;9.188;2023-10-09T03:33:58;20.33;;;5.53;;
75450;SDS011;64029;48.244;9.188;2023-10-09T03:36:28;21.97;;;5.60;;
75450;SDS011;64029;48.244;9.188;2023-10-09T03:38:55;15.97;;;6.10;;
75450;SDS011;64029;48.244;9.188;2023-10-09T03:41:23;23.93;;;6.50;;
75450;SDS011;64029;48.244;9.188;2023-10-09T03:43:51;17.57;;;6.17;;
75450;SDS011;64029;48.244;9.188;2023-10-09T03:46:21;21.83;;;6.03;;
75450;SDS011;64029;48.244;9.188;2023-10-09T03:48:57;19.00;;;5.10;;
75450;SDS011;64029;48.244;9.188;2023-10-09T03:51:26;18.30;;;5.47;;
75450;SDS011;64029;48.244;9.188;2023-10-09T03:53:53;19.67;;;5.50;;
75450;SDS011;64029;48.244;9.188;2023-10-09T03:56:20;14.60;;;4.83;;
75450;SDS011;64029;48.244;9.188;2023-10-09T03:58:48;15.93;;;4.90;;
75450;SDS011;64029;48.244;9.188;2023-10-09T04:01:16;14.70;;;5.90;;
75450;SDS011;64029;48.244;9.188;2023-10-09T04:03:50;20.13;;;5.00;;
75450;SDS011;64029;48.244;9.188;2023-10-09T04:06:20;16.73;;;4.60;;
75450;SDS011;64029;48.244;9.188;2023-10-09T04:08:47;13.33;;;5.20;;
75450;SDS011;64029;48.244;9.188;2023-10-09T04:11:16;19.30;;;5.67;;
75450;SDS011;64029;48.244;9.188;2023-10-09T04:13:47;12.73;;;4.87;;
75450;SDS011;64029;48.244;9.188;2023-10-09T04:16:15;17.63;;;4.50;;
75450;SDS011;64029;48.244;9.188;2023-10-09T04:19:02;18.57;;;5.10;;
75450;SDS011;64029;48.244;9.188;2023-10-09T04:21:36;20.37;;;5.50;;
75450;SDS011;64029;48.244;9.188;2023-10-09T04:24:03;10.93;;;5.23;;
75450;SDS011;64029;48.244;9.188;2023-10-09T04:26:48;18.40;;;6.27;;
75450;SDS011;64029;48.244;9.188;2023-10-09T04:29:21;12.20;;;5.00;;
75450;SDS011;64029;48.244;9.188;2023-10-09T04:31:52;17.73;;;5.50;;
75450;SDS011;64029;48.244;9.188;2023-10-09T04:34:22;25.93;;;5.90;;
75450;SDS011;64029;48.244;9.188;2023-10-09T04:36:54;17.13;;;4.87;;
75450;SDS011;64029;48.244;9.188;2023-10-09T04:39:25;15.60;;;5.30;;
75450;SDS011;64029;48.244;9.188;2023-10-09T04:42:11;15.53;;;5.53;;
75450;SDS011;64029;48.244;9.188;2023-10-09T04:44:45;14.67;;;4.23;;
75450;SDS011;64029;48.244;9.188;2023-10-09T04:47:26;16.37;;;5.23;;
75450;SDS011;64029;48.244;9.188;2023-10-09T04:50:03;17.73;;;5.07;;
75450;SDS011;64029;48.244;9.188;2023-10-09T04:52:36;18.53;;;5.90;;
75450;SDS011;64029;48.244;9.188;2023-10-09T04:55:17;22.23;;;6.00;;
75450;SDS011;64029;48.244;9.188;2023-10-09T04:57:49;22.10;;;5.90;;
75450;SDS011;64029;48.244;9.188;2023-10-09T05:00:38;15.20;;;6.33;;
75450;SDS011;64029;48.244;9.188;2023-10-09T05:03:28;17.30;;;6.20;;
75450;SDS011;64029;48.244;9.188;2023-10-09T05:06:09;14.37;;;5.40;;
75450;SDS011;64029;48.244;9.188;2023-10-09T05:08:54;18.00;;;5.90;;
75450;SDS011;64029;48.244;9.188;2023-10-09T05:11:32;16.83;;;5.30;;
75450;SDS011;64029;48.244;9.188;2023-10-09T05:14:17;15.47;;;5.40;;
75450;SDS011;64029;48.244;9.188;2023-10-09T05:16:51;23.13;;;5.60;;
75450;SDS011;64029;48.244;9.188;2023-10-09T05:19:26;17.10;;;5.50;;
75450;SDS011;64029;48.244;9.188;2023-10-09T05:22:08;15.87;;;5.73;;
75450;SDS011;64029;48.244;9.188;2023-10-09T05:24:42;20.80;;;6.57;;
75450;SDS011;64029;48.244;9.188;2023-10-09T05:27:11;18.67;;;5.10;;
75450;SDS011;64029;48.244;9.188;2023-10-09T05:29:42;19.47;;;6.17;;
75450;SDS011;64029;48.244;9.188;2023-10-09T05:32:24;25.17;;;6.93;;
75450;SDS011;64029;48.244;9.188;2023-10-09T05:34:55;15.23;;;5.40;;
75450;SDS011;64029;48.244;9.188;2023-10-09T05:37:42;15.40;;;5.13;;
75450;SDS011;64029;48.244;9.188;2023-10-09T05:40:12;19.67;;;5.53;;
75450;SDS011;64029;48.244;9.188;2023-10-09T05:42:49;20.33;;;6.10;;
75450;SDS011;64029;48.244;9.188;2023-10-09T05:45:24;16.37;;;5.00;;
75450;SDS011;64029;48.244;9.188;2023-10-09T05:48:15;17.40;;;5.10;;
75450;SDS011;64029;48.244;9.188;2023-10-09T05:50:59;28.40;;;5.80;;
75450;SDS011;64029;48.244;9.188;2023-10-09T05:53:38;17.47;;;5.97;;
75450;SDS011;64029;48.244;9.188;2023-10-09T05:56:23;17.23;;;5.00;;
75450;SDS011;64029;48.244;9.188;2023-10-09T05:59:07;19.00;;;6.80;;
75450;SDS011;64029;48.244;9.188;2023-10-09T06:01:54;19.47;;;6.20;;
75450;SDS011;64029;48.244;9.188;2023-10-09T06:04:39;19.77;;;6.07;;
75450;SDS011;64029;48.244;9.188;2023-10-09T06:07:19;18.23;;;6.10;;
75450;SDS011;64029;48.244;9.188;2023-10-09T06:09:50;15.10;;;5.37;;
75450;SDS011;64029;48.244;9.188;2023-10-09T06:12:17;13.27;;;5.27;;
75450;SDS011;64029;48.244;9.188;2023-10-09T06:15:05;15.47;;;4.67;;
75450;SDS011;64029;48.244;9.188;2023-10-09T06:18:16;13.30;;;4.80;;
75450;SDS011;64029;48.244;9.188;2023-10-09T06:20:53;14.50;;;5.20;;
75450;SDS011;64029;48.244;9.188;2023-10-09T06:23:34;21.70;;;5.17;;
75450;SDS011;64029;48.244;9.188;2023-10-09T06:26:19;16.00;;;5.50;;
75450;SDS011;64029;48.244;9.188;2023-10-09T06:28:52;14.67;;;4.83;;
75450;SDS011;64029;48.244;9.188;2023-10-09T06:31:33;19.73;;;6.63;;
75450;SDS011;64029;48.244;9.188;2023-10-09T06:34:22;18.80;;;6.00;;
75450;SDS011;64029;48.244;9.188;2023-10-09T06:36:58;15.90;;;6.23;;
75450;SDS011;64029;48.244;9.188;2023-10-09T06:39:42;15.33;;;4.90;;
75450;SDS011;64029;48.244;9.188;2023-10-09T06:42:34;14.20;;;5.43;;
75450;SDS011;64029;48.244;9.188;2023-10-09T06:45:09;20.77;;;5.90;;
75450;SDS011;64029;48.244;9.188;2023-10-09T06:47:40;16.70;;;5.90;;
75450;SDS011;64029;48.244;9.188;2023-10-09T06:50:21;11.20;;;4.53;;
75450;SDS011;64029;48.244;9.188;2023-10-09T06:53:12;13.30;;;4.63;;
75450;SDS011;64029;48.244;9.188;2023-10-09T06:55:50;17.50;;;5.70;;
75450;SDS011;64029;48.244;9.188;2023-10-09T06:58:19;20.30;;;5.23;;
75450;SDS011;64029;48.244;9.188;2023-10-09T07:00:50;17.30;;;6.23;;
75450;SDS011;64029;48.244;9.188;2023-10-09T07:03:26;17.90;;;5.43;;
75450;SDS011;64029;48.244;9.188;2023-10-09T07:06:02;14.53;;;5.13;;
75450;SDS011;64029;48.244;9.188;2023-10-09T07:08:35;10.90;;;4.80;;
75450;SDS011;64029;48.244;9.188;2023-10-09T07:11:02;15.70;;;5.23;;
75450;SDS011;64029;48.244;9.188;2023-10-09T07:13:44;15.80;;;5.77;;
75450;SDS011;64029;48.244;9.188;2023-10-09T07:16:21;18.17;;;5.40;;
75450;SDS011;64029;48.244;9.188;2023-10-09T07:18:53;19.53;;;4.70;;
75450;SDS011;64029;48.244;9.188;2023-10-09T07:21:34;15.23;;;4.40;;
75450;SDS011;64029;48.244;9.188;2023-10-09T07:24:04;17.07;;;5.60;;
75450;SDS011;64029;48.244;9.188;2023-10-09T07:26:42;13.97;;;4.30;;
75450;SDS011;64029;48.244;9.188;2023-10-09T07:29:19;18.67;;;5.40;;
75450;SDS011;64029;48.244;9.188;2023-10-09T07:31:48;16.63;;;5.53;;
75450;SDS011;64029;48.244;9.188;2023-10-09T07:34:23;11.63;;;5.10;;
75450;SDS011;64029;48.244;9.188;2023-10-09T07:37:13;24.33;;;6.93;;
75450;SDS011;64029;48.244;9.188;2023-10-09T07:39:44;21.47;;;6.87;;
75450;SDS011;64029;48.244;9.188;2023-10-09T07:42:22;16.63;;;6.50;;
75450;SDS011;64029;48.244;9.188;2023-10-09T07:45:00;12.50;;;5.20;;
75450;SDS011;64029;48.244;9.188;2023-10-09T07:47:37;18.40;;;6.03;;
75450;SDS011;64029;48.244;9.188;2023-10-09T07:50:18;18.83;;;5.90;;
75450;SDS011;64029;48.244;9.188;2023-10-09T07:52:48;18.47;;;4.67;;
75450;SDS011;64029;48.244;9.188;2023-10-09T07:55:39;14.53;;;4.83;;
75450;SDS011;64029;48.244;9.188;2023-10-09T07:58:10;20.27;;;5.70;;
75450;SDS011;64029;48.244;9.188;2023-10-09T08:00:39;14.83;;;5.47;;
75450;SDS011;64029;48.244;9.188;2023-10-09T08:03:31;25.03;;;5.60;;
75450;SDS011;64029;48.244;9.188;2023-10-09T08:06:04;18.20;;;5.10;;
75450;SDS011;64029;48.244;9.188;2023-10-09T08:08:55;26.80;;;6.00;;
75450;SDS011;64029;48.244;9.188;2023-10-09T08:11:36;17.53;;;5.73;;
75450;SDS011;64029;48.244;9.188;2023-10-09T08:14:25;16.33;;;5.30;;
75450;SDS011;64029;48.244;9.188;2023-10-09T08:17:12;12.43;;;4.87;;
75450;SDS011;64029;48.244;9.188;2023-10-09T08:19:42;18.23;;;6.50;;
75450;SDS011;64029;48.244;9.188;2023-10-09T08:22:22;29.97;;;7.03;;
75450;SDS011;64029;48.244;9.188;2023-10-09T08:25:07;18.93;;;5.50;;
75450;SDS011;64029;48.244;9.188;2023-10-09T08:27:51;16.00;;;6.57;;
75450;SDS011;64029;48.244;9.188;2023-10-09T08:30:20;13.60;;;4.60;;
75450;SDS011;64029;48.244;9.188;2023-10-09T08:33:12;12.23;;;4.53;;
75450;SDS011;64029;48.244;9.188;2023-10-09T08:35:56;13.73;;;4.90;;
75450;SDS011;64029;48.244;9.188;2023-10-09T08:38:29;10.50;;;3.43;;
75450;SDS011;64029;48.244;9.188;2023-10-09T08:41:08;14.83;;;3.63;;
75450;SDS011;64029;48.244;9.188;2023-10-09T08:43:49;16.23;;;4.10;;
75450;SDS011;64029;48.244;9.188;2023-10-09T08:46:18;16.83;;;3.20;;
75450;SDS011;64029;48.244;9.188;2023-10-09T08:48:50;12.57;;;3.10;;
75450;SDS011;64029;48.244;9.188;2023-10-09T08:51:19;10.40;;;3.77;;
75450;SDS011;64029;48.244;9.188;2023-10-09T08:53:48;13.87;;;3.03;;
75450;SDS011;64029;48.244;9.188;2023-10-09T08:56:17;15.07;;;2.87;;
75450;SDS011;64029;48.244;9.188;2023-10-09T08:58:50;12.13;;;3.30;;
75450;SDS011;64029;48.244;9.188;2023-10-09T09:01:17;12.40;;;3.20;;
75450;SDS011;64029;48.244;9.188;2023-10-09T09:03:46;10.83;;;3.20;;
75450;SDS011;64029;48.244;9.188;2023-10-09T09:06:17;12.20;;;3.60;;
75450;SDS011;64029;48.244;9.188;2023-10-09T09:08:45;12.43;;;3.60;;
75450;SDS011;64029;48.244;9.188;2023-10-09T09:11:13;10.10;;;2.90;;
75450;SDS011;64029;48.244;9.188;2023-10-09T09:13:43;22.63;;;3.50;;
75450;SDS011;64029;48.244;9.188;2023-10-09T09:16:15;10.80;;;3.10;;
75450;SDS011;64029;48.244;9.188;2023-10-09T09:18:49;16.90;;;3.57;;
75450;SDS011;64029;48.244;9.188;2023-10-09T09:21:23;12.37;;;3.50;;
75450;SDS011;64029;48.244;9.188;2023-10-09T09:23:53;10.70;;;2.83;;
75450;SDS011;64029;48.244;9.188;2023-10-09T09:26:32;15.07;;;3.23;;
75450;SDS011;64029;48.244;9.188;2023-10-09T09:29:10;11.37;;;3.40;;
75450;SDS011;64029;48.244;9.188;2023-10-09T09:31:37;8.87;;;3.37;;
75450;SDS011;64029;48.244;9.188;2023-10-09T09:34:07;16.37;;;3.57;;
75450;SDS011;64029;48.244;9.188;2023-10-09T09:36:53;9.00;;;2.80;;
75450;SDS011;64029;48.244;9.188;2023-10-09T09:39:21;18.87;;;3.77;;
75450;SDS011;64029;48.244;9.188;2023-10-09T09:41:58;14.97;;;3.47;;
75450;SDS011;64029;48.244;9.188;2023-10-09T09:44:33;8.47;;;2.90;;
75450;SDS011;64029;48.244;9.188;2023-10-09T09:47:08;12.07;;;3.23;;
75450;SDS011;64029;48.244;9.188;2023-10-09T09:49:40;15.83;;;3.80;;
75450;SDS011;64029;48.244;9.188;2023-10-09T09:52:12;14.60;;;3.20;;
75450;SDS011;64029;48.244;9.188;2023-10-09T09:54:43;13.33;;;3.30;;
75450;SDS011;64029;48.244;9.188;2023-10-09T09:57:11;13.13;;;3.63;;
75450;SDS011;64029;48.244;9.188;2023-10-09T09:59:51;13.80;;;3.63;;
75450;SDS011;64029;48.244;9.188;2023-10-09T10:02:24;16.50;;;4.10;;
75450;SDS011;64029;48.244;9.188;2023-10-09T10:04:58;12.27;;;3.40;;
75450;SDS011;64029;48.244;9.188;2023-10-09T10:07:34;11.90;;;3.77;;
75450;SDS011;64029;48.244;9.188;2023-10-09T10:13:04;13.07;;;2.70;;
75450;SDS011;64029;48.244;9.188;2023-10-09T10:18:53;12.10;;;3.47;;
75450;SDS011;64029;48.244;9.188;2023-10-09T10:21:32;14.97;;;2.90;;
75450;SDS011;64029;48.244;9.188;2023-10-09T10:24:05;16.87;;;4.33;;
75450;SDS011;64029;48.244;9.188;2023-10-09T10:27:22;16.43;;;3.80;;
75450;SDS011;64029;48.244;9.188;2023-10-09T10:33:02;20.47;;;4.47;;
75450;SDS011;64029;48.244;9.188;2023-10-09T10:35:41;12.93;;;3.77;;
75450;SDS011;64029;48.244;9.188;2023-10-09T10:38:30;17.10;;;4.07;;
75450;SDS011;64029;48.244;9.188;2023-10-09T10:41:10;13.77;;;3.33;;
75450;SDS011;64029;48.244;9.188;2023-10-09T10:43:47;17.00;;;3.40;;
75450;SDS011;64029;48.244;9.188;2023-10-09T10:46:24;18.03;;;4.20;;
75450;SDS011;64029;48.244;9.188;2023-10-09T10:49:02;14.87;;;3.97;;
75450;SDS011;64029;48.244;9.188;2023-10-09T10:51:40;13.60;;;4.10;;
75450;SDS011;64029;48.244;9.188;2023-10-09T10:54:19;13.07;;;4.20;;
75450;SDS011;64029;48.244;9.188;2023-10-09T10:57:15;26.17;;;4.00;;
75450;SDS011;64029;48.244;9.188;2023-10-09T10:59:55;17.53;;;4.50;;
75450;SDS011;64029;48.244;9.188;2023-10-09T11:02:43;15.67;;;4.07;;
75450;SDS011;64029;48.244;9.188;2023-10-09T11:05:13;17.37;;;5.50;;
75450;SDS011;64029;48.244;9.188;2023-10-09T11:07:57;16.10;;;4.17;;
75450;SDS011;64029;48.244;9.188;2023-10-09T11:10:26;23.90;;;5.50;;
75450;SDS011;64029;48.244;9.188;2023-10-09T11:12:58;18.47;;;4.50;;
75450;SDS011;64029;48.244;9.188;2023-10-09T11:15:42;19.90;;;3.73;;
75450;SDS011;64029;48.244;9.188;2023-10-09T11:18:12;17.30;;;4.57;;
75450;SDS011;64029;48.244;9.188;2023-10-09T11:20:48;17.50;;;4.27;;
75450;SDS011;64029;48.244;9.188;2023-10-09T11:23:42;15.77;;;4.83;;
75450;SDS011;64029;48.244;9.188;2023-10-09T11:26:22;14.13;;;4.57;;
75450;SDS011;64029;48.244;9.188;2023-10-09T11:29:07;16.03;;;4.50;;
75450;SDS011;64029;48.244;9.188;2023-10-09T11:31:41;16.37;;;4.80;;
75450;SDS011;64029;48.244;9.188;2023-10-09T11:34:25;19.30;;;4.63;;
75450;SDS011;64029;48.244;9.188;2023-10-09T11:37:01;16.00;;;4.60;;
75450;SDS011;64029;48.244;9.188;2023-10-09T11:39:29;16.70;;;4.90;;
75450;SDS011;64029;48.244;9.188;2023-10-09T11:42:16;12.30;;;4.03;;
75450;SDS011;64029;48.244;9.188;2023-10-09T11:45:02;17.80;;;5.03;;
75450;SDS011;64029;48.244;9.188;2023-10-09T11:47:44;13.23;;;5.00;;
75450;SDS011;64029;48.244;9.188;2023-10-09T11:50:22;15.80;;;4.80;;
75450;SDS011;64029;48.244;9.188;2023-10-09T11:53:18;19.40;;;3.80;;
75450;SDS011;64029;48.244;9.188;2023-10-09T11:56:00;16.90;;;4.50;;
75450;SDS011;64029;48.244;9.188;2023-10-09T11:58:28;18.33;;;3.63;;
75450;SDS011;64029;48.244;9.188;2023-10-09T12:00:56;12.77;;;4.10;;
75450;SDS011;64029;48.244;9.188;2023-10-09T12:03:28;15.13;;;3.77;;
75450;SDS011;64029;48.244;9.188;2023-10-09T12:05:56;19.40;;;5.10;;
75450;SDS011;64029;48.244;9.188;2023-10-09T12:08:29;17.30;;;4.20;;
75450;SDS011;64029;48.244;9.188;2023-10-09T12:10:56;18.37;;;3.97;;
75450;SDS011;64029;48.244;9.188;2023-10-09T12:13:24;14.13;;;3.60;;
75450;SDS011;64029;48.244;9.188;2023-10-09T12:15:51;15.00;;;3.77;;
75450;SDS011;64029;48.244;9.188;2023-10-09T12:18:21;22.10;;;4.90;;
75450;SDS011;64029;48.244;9.188;2023-10-09T12:20:49;18.53;;;4.50;;
75450;SDS011;64029;48.244;9.188;2023-10-09T12:23:17;15.90;;;4.50;;
75450;SDS011;64029;48.244;9.188;2023-10-09T12:25:45;27.23;;;4.80;;
75450;SDS011;64029;48.244;9.188;2023-10-09T12:28:14;22.03;;;4.63;;
75450;SDS011;64029;48.244;9.188;2023-10-09T12:30:45;20.50;;;4.50;;
75450;SDS011;64029;48.244;9.188;2023-10-09T12:33:15;13.00;;;3.87;;
75450;SDS011;64029;48.244;9.188;2023-10-09T12:35:45;15.40;;;4.63;;
75450;SDS011;64029;48.244;9.188;2023-10-09T12:38:12;20.60;;;4.23;;
75450;SDS011;64029;48.244;9.188;2023-10-09T12:40:43;16.07;;;4.47;;
75450;SDS011;64029;48.244;9.188;2023-10-09T12:43:15;20.20;;;4.33;;
75450;SDS011;64029;48.244;9.188;2023-10-09T12:45:45;16.03;;;4.20;;
75450;SDS011;64029;48.244;9.188;2023-10-09T12:48:12;17.90;;;4.33;;
75450;SDS011;64029;48.244;9.188;2023-10-09T12:50:39;16.03;;;4.80;;
75450;SDS011;64029;48.244;9.188;2023-10-09T12:53:10;17.87;;;4.10;;
75450;SDS011;64029;48.244;9.188;2023-10-09T12:55:43;12.60;;;4.27;;
75450;SDS011;64029;48.244;9.188;2023-10-09T12:58:10;21.13;;;4.60;;
75450;SDS011;64029;48.244;9.188;2023-10-09T13:00:39;17.20;;;5.77;;
75450;SDS011;64029;48.244;9.188;2023-10-09T13:03:13;19.07;;;4.77;;
75450;SDS011;64029;48.244;9.188;2023-10-09T13:05:45;17.50;;;4.20;;
75450;SDS011;64029;48.244;9.188;2023-10-09T13:08:21;18.57;;;5.20;;
75450;SDS011;64029;48.244;9.188;2023-10-09T13:10:49;11.07;;;3.57;;
75450;SDS011;64029;48.244;9.188;2023-10-09T13:13:23;19.43;;;3.90;;
75450;SDS011;64029;48.244;9.188;2023-10-09T13:16:05;16.83;;;3.97;;
75450;SDS011;64029;48.244;9.188;2023-10-09T13:18:34;27.80;;;5.33;;
75450;SDS011;64029;48.244;9.188;2023-10-09T13:21:02;18.00;;;4.60;;
75450;SDS011;64029;48.244;9.188;2023-10-09T13:23:31;16.43;;;4.20;;
75450;SDS011;64029;48.244;9.188;2023-10-09T13:26:07;21.70;;;5.10;;
75450;SDS011;64029;48.244;9.188;2023-10-09T13:28:46;15.87;;;4.23;;
75450;SDS011;64029;48.244;9.188;2023-10-09T13:31:14;16.80;;;3.80;;
75450;SDS011;64029;48.244;9.188;2023-10-09T13:33:43;19.43;;;4.17;;
75450;SDS011;64029;48.244;9.188;2023-10-09T13:36:11;16.53;;;4.73;;
75450;SDS011;64029;48.244;9.188;2023-10-09T13:38:56;16.67;;;5.40;;
75450;SDS011;64029;48.244;9.188;2023-10-09T13:41:27;16.03;;;4.67;;
75450;SDS011;64029;48.244;9.188;2023-10-09T13:43:54;17.27;;;4.10;;
75450;SDS011;64029;48.244;9.188;2023-10-09T13:46:25;23.80;;;4.80;;
75450;SDS011;64029;48.244;9.188;2023-10-09T13:48:51;20.83;;;4.13;;
75450;SDS011;64029;48.244;9.188;2023-10-09T13:51:21;17.60;;;4.47;;
75450;SDS011;64029;48.244;9.188;2023-10-09T13:53:49;17.27;;;4.77;;
75450;SDS011;64029;48.244;9.188;2023-10-09T13:56:18;9.67;;;3.83;;
75450;SDS011;64029;48.244;9.188;2023-10-09T13:58:46;12.20;;;4.00;;
75450;SDS011;64029;48.244;9.188;2023-10-09T14:01:14;17.20;;;4.20;;
75450;SDS011;64029;48.244;9.188;2023-10-09T14:03:52;26.23;;;4.40;;
75450;SDS011;64029;48.244;9.188;2023-10-09T14:06:22;15.63;;;5.13;;
75450;SDS011;64029;48.244;9.188;2023-10-09T14:08:56;18.77;;;4.37;;
75450;SDS011;64029;48.244;9.188;2023-10-09T14:11:25;13.37;;;4.37;;
75450;SDS011;64029;48.244;9.188;2023-10-09T14:13:53;17.40;;;4.10;;
75450;SDS011;64029;48.244;9.188;2023-10-09T14:16:20;16.23;;;4.63;;
75450;SDS011;64029;48.244;9.188;2023-10-09T14:18:54;23.47;;;3.97;;
75450;SDS011;64029;48.244;9.188;2023-10-09T14:21:24;12.97;;;4.00;;
75450;SDS011;64029;48.244;9.188;2023-10-09T14:23:53;18.20;;;4.17;;
75450;SDS011;64029;48.244;9.188;2023-10-09T14:26:23;15.37;;;3.60;;
75450;SDS011;64029;48.244;9.188;2023-10-09T14:28:55;19.93;;;4.30;;
75450;SDS011;64029;48.244;9.188;2023-10-09T14:31:26;17.13;;;4.37;;
75450;SDS011;64029;48.244;9.188;2023-10-09T14:33:53;13.80;;;4.07;;
75450;SDS011;64029;48.244;9.188;2023-10-09T14:36:21;23.53;;;5.10;;
75450;SDS011;64029;48.244;9.188;2023-10-09T14:38:49;19.10;;;5.07;;
75450;SDS011;64029;48.244;9.188;2023-10-09T14:41:19;12.33;;;3.73;;
75450;SDS011;64029;48.244;9.188;2023-10-09T14:43:50;12.23;;;4.10;;
75450;SDS011;64029;48.244;9.188;2023-10-09T14:46:17;15.07;;;3.57;;
75450;SDS011;64029;48.244;9.188;2023-10-09T14:48:50;16.57;;;4.73;;
75450;SDS011;64029;48.244;9.188;2023-10-09T14:51:18;15.17;;;4.00;;
75450;SDS011;64029;48.244;9.188;2023-10-09T14:53:52;18.17;;;4.20;;
75450;SDS011;64029;48.244;9.188;2023-10-09T14:56:22;13.30;;;4.30;;
75450;SDS011;64029;48.244;9.188;2023-10-09T14:58:55;14.03;;;4.23;;
75450;SDS011;64029;48.244;9.188;2023-10-09T15:01:24;13.03;;;4.40;;
75450;SDS011;64029;48.244;9.188;2023-10-09T15:03:54;10.20;;;3.80;;
75450;SDS011;64029;48.244;9.188;2023-10-09T15:06:22;16.93;;;4.80;;
75450;SDS011;64029;48.244;9.188;2023-10-09T15:08:52;15.53;;;4.07;;
75450;SDS011;64029;48.244;9.188;2023-10-09T15:11:24;10.83;;;3.30;;
75450;SDS011;64029;48.244;9.188;2023-10-09T15:13:54;16.57;;;3.77;;
75450;SDS011;64029;48.244;9.188;2023-10-09T15:16:24;16.30;;;4.00;;
75450;SDS011;64029;48.244;9.188;2023-10-09T15:18:55;12.03;;;4.43;;
75450;SDS011;64029;48.244;9.188;2023-10-09T15:21:23;11.60;;;4.00;;
75450;SDS011;64029;48.244;9.188;2023-10-09T15:23:51;16.90;;;5.20;;
75450;SDS011;64029;48.244;9.188;2023-10-09T15:26:19;9.30;;;3.80;;